Main page
METAR-TAF:

METAR-TAF

Airports :

Multan, Pakistan

Multan International Airport

latitude: 30-12-12N, longitude: 71-25-09E, elevation: 122 m

Current weather observation

The report was made 40 minutes ago, at 19:55 UTC
Wind 4 kt from the Southeast
Temperature 31°C
Humidity 29%
Pressure 1007 hPa
Visibility: 4000 m
haze

METAR: OPMT 301955Z 13004KT 4000 HZ NSC 31/11 Q1007 NOSIG

Time: 01:35 (20:35 UTC)

Forecast

The report was made 4 hours and 5 minutes ago, at 16:30 UTC
Forecast valid from 30 at 18 UTC to 01 at 12 UTC
Wind 10 kt from the Southwest
Visibility: 5000 m
Few clouds at a height of 12000 ft
haze
Probability 30% :
Temporary
from 01 at 03 UTC to 01 at 07 UTC
Wind 20 kt from the North
Visibility: 2000 m
Few clouds at a height of 12000 ft
Blowing dust

TAF: OPMT 301630Z 3018/0112 23010KT 5000 HZ FEW120 TN24/0100 TX37/0110Z PROB30 TEMPO 0103/0107 36020KT 2000 BLDU FEW120

Weather observations and forecasts of more than 4000 airports (METAR and TAF reports).

The available stations are represented by yellow and red dots on the map.

Hover mouse over dot to see the name of the station.

Then click to see weather observations and forecasts.

To change the map : click on the green buttons with a black cross to zoom in, on the green button with a dash to zoom out, or on the green arrows for adjacent maps.


METAR-TAF: